Snel-info
Kleurcode:
Geel
Er mag gevlogen worden.
Voorzichtigheid geboden!
Laatste update: 26/09/2018
Kleurcode informatie

Grasmaaien:

Geen maaibeurten gepland.

Volgende vliegdagen:

  • do 1 november : Allerheiligen
  • vr 2 november : Allerzielen
  • do 15 november : Koningsdag
Alle extra vliegdagen

Weersituatie op PMF:

096_18-juli-2010__04_Nard.jpg

Huidige weersituatie

Huidig weerbeeld in Kleine Brogel, Belgium
Huidige wind in Kleine Brogel, Belgium

Dit is het bericht voor Kleine Brogel, Belgium en werd 20 minuten geleden gemaakt.
De wind waaide met een snelheid van 6.7 meter per seconde (24.1 km/h) uit het west/zuidwesten (250°).
De temperatuur was 11 °C. De atmosferische druk was 1027 hPa. De relative luchtvochtigheid was 76.3%.
Het was licht bewolkt op een hoogte van 671 meter, half bewolkt op een hoogte van 3962 meter, en zwaar bewolkt op een hoogte van 7315 meter. Het algemene zicht was meer dan 10 kilometer.

De onbewerkte METAR gegevens waarop dit bericht is gebaseerd zijn:
EBBL 230955Z 25013KT 9999 FEW022 SCT130 BKN240 11/07 Q1027 BLU BLU TEMPO WHT


Opmerking:
De wind blijkt op PMF meestal iets krachtiger te waaien dan op Kleine Brogel. De windrichting klopt dan weer wel.




KMI

De weersvoorspellingen van het KMI vind je via deze link.


Buienradar

Op www.buienradar.nl kun je zelf zien waar het nu en de komende uren regent.